Portada
METAR-TAF:

METAR-TAF

Aeroports :

Angers, França

latitud: 47-33-37N, longitud: 000-18-44W, altitud: 59 m

Observació

L'informe es va fer fa 14 minuts, a les 07:30 UTC
Vent 9 kt del Oest, variant entre Oest/Sud-Oest i Nord-Oest
Temperatura 4°C
Humitat 75%
Pressió 1011 hPa
Visibilitat 10 km o més
Núvols disperses a una alçada de 3200 ft

METAR: LFJR 260730Z AUTO 27009KT 240V310 9999 SCT032 04/M00 Q1011

Hora: 08:44 (07:44 UTC)


TAF: manca

Observacions i pronòstics meteorològics de més de 4000 aeroports (METAR i TAF).

Les estacions disponibles són els punts grocs i vermells al mapa.

Posi el ratolí al punt desitjat per veure el nom de l'estació.

Feu clic per veure les observacions i els pronòstics meteorològics.

Per canviar el mapa: feu clic els botons verds amb una creu de color negre per apropar; al botó verd amb un guió per allunyar la imatge; o en les fletxes verdes per a mapes adjacents.


METAR-TAF: